Time;durP1;ratioP1;P1;durP2;ratioP2;P2;SDS_P1;SDS_P2;PMS_P1;PMS_P2;Temp;Humidity;BMP_temperature;BMP_pressure;BME280_temperature;BME280_humidity;BME280_pressure;Samples;Min_cycle;Max_cycle;Signal;HPM_P1;HPM_P2
2022/09/26 00:00:05;;;;;;;7.70;4.23;;;;;;;8.36;100.00;100249.09;688979;28;1123;-68
2022/09/26 00:00:32;;;;;;;7.53;4.10;;;;;;;8.32;100.00;100248.28;689311;28;1299;-67
2022/09/26 00:00:52;;;;;;;8.50;4.40;;;;;;;8.31;100.00;100250.88;687899;28;4512;-66
2022/09/26 00:01:22;;;;;;;7.80;4.45;;;;;;;8.30;100.00;100246.53;688621;28;1500;-67
2022/09/26 00:01:43;;;;;;;8.15;4.43;;;;;;;8.32;100.00;100244.78;687425;28;1136;-68
2022/09/26 00:02:03;;;;;;;7.15;4.13;;;;;;;8.32;100.00;100247.38;688682;28;1352;-66
2022/09/26 00:02:24;;;;;;;7.73;3.80;;;;;;;8.34;100.00;100251.72;687134;28;1162;-67
2022/09/26 00:02:44;;;;;;;6.40;3.90;;;;;;;8.37;100.00;100244.78;686812;28;1167;-67
2022/09/26 00:03:04;;;;;;;6.28;3.80;;;;;;;8.39;100.00;100249.13;688171;28;1323;-67
2022/09/26 00:03:25;;;;;;;6.87;4.00;;;;;;;8.41;100.00;100244.75;688737;28;1191;-67
2022/09/26 00:03:47;;;;;;;6.80;4.30;;;;;;;8.40;100.00;100243.03;688598;28;4556;-67
2022/09/26 00:04:14;;;;;;;6.82;4.00;;;;;;;8.39;100.00;100238.72;689563;28;981;-68
2022/09/26 00:04:35;;;;;;;8.05;4.18;;;;;;;8.40;100.00;100243.03;688709;28;1616;-68
2022/09/26 00:04:55;;;;;;;7.68;3.80;;;;;;;8.41;100.00;100236.94;688933;28;1477;-67
2022/09/26 00:05:15;;;;;;;6.50;4.10;;;;;;;8.43;100.00;100237.84;688257;28;1125;-67
2022/09/26 00:05:37;;;;;;;6.40;4.20;;;;;;;8.43;100.00;100244.75;688367;28;1203;-68
2022/09/26 00:06:03;;;;;;;6.93;4.03;;;;;;;8.41;100.00;100242.16;687582;28;1160;-67
2022/09/26 00:06:25;;;;;;;7.10;4.20;;;;;;;8.41;100.00;100242.16;688492;28;1313;-68
2022/09/26 00:06:46;;;;;;;7.43;3.78;;;;;;;8.43;100.00;100239.56;687673;28;4595;-67
2022/09/26 00:07:06;;;;;;;6.75;3.80;;;;;;;8.45;100.00;100240.47;687919;28;1199;-66
2022/09/26 00:07:27;;;;;;;7.32;3.88;;;;;;;8.47;100.00;100242.19;689181;28;1273;-67
2022/09/26 00:07:47;;;;;;;6.30;3.80;;;;;;;8.48;100.00;100238.69;690814;28;1306;-65
2022/09/26 00:08:07;;;;;;;5.60;3.70;;;;;;;8.51;100.00;100238.72;691018;28;1159;-67
2022/09/26 00:08:28;;;;;;;7.07;3.80;;;;;;;8.56;100.00;100232.63;688227;28;1182;-67
2022/09/26 00:08:50;;;;;;;7.15;3.70;;;;;;;8.58;100.00;100233.47;688083;28;1337;-67
2022/09/26 00:09:12;;;;;;;6.70;3.83;;;;;;;8.58;100.00;100236.91;687820;28;1437;-67
2022/09/26 00:09:32;;;;;;;6.88;3.92;;;;;;;8.56;100.00;100230.88;687059;28;1263;-67
2022/09/26 00:09:54;;;;;;;7.37;4.00;;;;;;;8.51;100.00;100233.50;687035;28;4435;-67
2022/09/26 00:10:14;;;;;;;7.25;4.05;;;;;;;8.48;100.00;100233.47;689814;28;1310;-67
2022/09/26 00:10:35;;;;;;;6.47;4.33;;;;;;;8.48;100.00;100230.88;688182;28;1177;-67
2022/09/26 00:11:00;;;;;;;7.18;3.92;;;;;;;8.46;100.00;100235.25;688882;28;1435;-67
2022/09/26 00:11:24;;;;;;;6.82;3.80;;;;;;;8.44;100.00;100231.72;686766;28;1429;-67
2022/09/26 00:11:44;;;;;;;8.27;4.10;;;;;;;8.44;100.00;100234.31;688965;28;1431;-67
2022/09/26 00:12:06;;;;;;;7.50;3.92;;;;;;;8.43;100.00;100235.22;689920;28;1207;-67
2022/09/26 00:12:26;;;;;;;6.70;3.90;;;;;;;8.43;100.00;100230.00;688468;28;1914;-66
2022/09/26 00:12:47;;;;;;;7.22;3.83;;;;;;;8.43;100.00;100229.13;690227;28;4312;-66
2022/09/26 00:13:08;;;;;;;7.50;3.93;;;;;;;8.42;100.00;100233.47;687931;28;1162;-67
2022/09/26 00:13:31;;;;;;;7.43;4.05;;;;;;;8.42;100.00;100230.88;686340;28;1415;-66
2022/09/26 00:13:54;;;;;;;7.38;4.30;;;;;;;8.40;100.00;100227.41;685972;28;1177;-67
2022/09/26 00:14:19;;;;;;;6.90;4.10;;;;;;;8.41;100.00;100226.53;686687;28;1339;-68
2022/09/26 00:14:39;;;;;;;7.28;4.00;;;;;;;8.42;100.00;100237.81;686411;28;1585;-65
2022/09/26 00:14:59;;;;;;;6.60;4.13;;;;;;;8.41;100.00;100223.94;688354;28;1477;-67
2022/09/26 00:15:20;;;;;;;5.73;4.10;;;;;;;8.42;100.00;100233.47;687323;28;1537;-67
2022/09/26 00:15:41;;;;;;;6.40;4.00;;;;;;;8.40;100.00;100224.78;686962;28;4321;-68
2022/09/26 00:16:02;;;;;;;8.10;3.90;;;;;;;8.41;100.00;100225.69;686970;28;1559;-66
2022/09/26 00:16:23;;;;;;;7.63;4.00;;;;;;;8.41;100.00;100221.31;686185;28;1303;-68
2022/09/26 00:16:44;;;;;;;6.90;4.10;;;;;;;8.43;100.00;100217.00;685800;28;1057;-67
2022/09/26 00:17:04;;;;;;;7.15;4.20;;;;;;;8.48;100.00;100228.28;683812;28;1157;-67
2022/09/26 00:17:24;;;;;;;7.10;4.10;;;;;;;8.50;100.00;100223.94;680014;28;2037;-68
2022/09/26 00:17:45;;;;;;;7.00;3.90;;;;;;;8.52;100.00;100222.19;679605;28;1418;-66
2022/09/26 00:18:05;;;;;;;7.28;4.20;;;;;;;8.53;100.00;100225.66;680930;28;1682;-67
2022/09/26 00:18:25;;;;;;;6.73;4.17;;;;;;;8.52;100.00;100223.94;683048;28;1216;-67
2022/09/26 00:18:50;;;;;;;7.03;4.10;;;;;;;8.48;100.00;100225.66;681510;28;4464;-67
2022/09/26 00:19:11;;;;;;;6.93;4.13;;;;;;;8.47;100.00;100221.34;684756;28;1247;-67
2022/09/26 00:19:31;;;;;;;7.50;4.10;;;;;;;8.47;100.00;100221.34;684505;28;3643;-68
2022/09/26 00:19:52;;;;;;;7.40;4.22;;;;;;;8.47;100.00;100220.47;685806;28;1359;-66
2022/09/26 00:20:12;;;;;;;9.60;4.47;;;;;;;8.46;100.00;100222.22;687191;28;1135;-66
2022/09/26 00:20:35;;;;;;;7.47;4.03;;;;;;;8.46;100.00;100224.81;687448;28;1306;-68
2022/09/26 00:21:07;;;;;;;9.18;4.18;;;;;;;8.48;100.00;100217.84;687894;28;1392;-67
2022/09/26 00:21:29;;;;;;;8.85;4.25;;;;;;;8.49;100.00;100213.53;687014;28;1426;-68
2022/09/26 00:21:49;;;;;;;8.18;4.05;;;;;;;8.51;100.00;100217.88;687387;28;4287;-67
2022/09/26 00:22:10;;;;;;;6.85;3.95;;;;;;;8.52;100.00;100223.94;688402;28;1223;-67
2022/09/26 00:22:30;;;;;;;8.23;4.57;;;;;;;8.52;100.00;100218.72;683334;28;1160;-67
2022/09/26 00:22:50;;;;;;;8.45;4.65;;;;;;;8.52;100.00;100219.56;683434;28;1312;-68
2022/09/26 00:23:11;;;;;;;7.00;4.20;;;;;;;8.54;100.00;100226.53;683674;28;1311;-67
2022/09/26 00:23:31;;;;;;;5.53;3.92;;;;;;;8.54;100.00;100222.19;683449;28;1662;-67
2022/09/26 00:23:53;;;;;;;6.57;3.80;;;;;;;8.57;100.00;100219.59;683555;28;1160;-67
2022/09/26 00:24:14;;;;;;;6.75;4.20;;;;;;;8.60;100.00;100222.16;684011;28;1402;-66
2022/09/26 00:24:34;;;;;;;7.63;4.15;;;;;;;8.62;100.00;100217.81;686882;28;1429;-67
2022/09/26 00:24:54;;;;;;;7.00;4.10;;;;;;;8.62;100.00;100223.00;687282;28;4398;-67
2022/09/26 00:25:15;;;;;;;6.65;4.00;;;;;;;8.64;100.00;100216.06;688251;28;1497;-68
2022/09/26 00:25:35;;;;;;;7.57;3.83;;;;;;;8.66;100.00;100219.53;687519;28;1362;-67
2022/09/26 00:25:59;;;;;;;7.65;3.85;;;;;;;8.70;100.00;100220.38;687195;28;1410;-66
2022/09/26 00:26:21;;;;;;;6.80;4.03;;;;;;;8.71;100.00;100219.53;687197;28;1353;-67
2022/09/26 00:26:42;;;;;;;7.03;4.20;;;;;;;8.73;100.00;100212.56;688053;28;1450;-67
2022/09/26 00:27:03;;;;;;;7.15;3.95;;;;;;;8.77;100.00;100218.63;687505;28;1190;-67
2022/09/26 00:27:23;;;;;;;7.33;4.00;;;;;;;8.81;100.00;100220.34;685449;28;1486;-66
2022/09/26 00:27:44;;;;;;;7.25;3.63;;;;;;;8.82;100.00;100222.06;682624;28;4301;-68
2022/09/26 00:28:04;;;;;;;7.78;4.15;;;;;;;8.82;100.00;100219.44;679418;29;1070;-68
2022/09/26 00:28:25;;;;;;;7.43;4.33;;;;;;;8.81;100.00;100213.38;680096;29;1392;-67
2022/09/26 00:28:46;;;;;;;7.95;4.35;;;;;;;8.78;100.00;100213.41;682262;28;1237;-67
2022/09/26 00:29:09;;;;;;;7.43;4.03;;;;;;;8.75;100.00;100216.03;681278;28;1416;-67
2022/09/26 00:29:29;;;;;;;6.88;4.20;;;;;;;8.75;100.00;100212.53;683192;28;1256;-67
2022/09/26 00:29:50;;;;;;;6.57;4.27;;;;;;;8.73;100.00;100209.09;683435;28;1248;-66
2022/09/26 00:30:11;;;;;;;7.45;4.47;;;;;;;8.72;100.00;100216.03;684724;28;1361;-67
2022/09/26 00:30:31;;;;;;;8.27;4.18;;;;;;;8.69;100.00;100210.84;684412;28;1267;-67
2022/09/26 00:30:51;;;;;;;7.70;3.83;;;;;;;8.66;100.00;100206.50;685812;28;4564;-67
2022/09/26 00:31:15;;;;;;;7.03;4.00;;;;;;;8.67;100.00;100207.38;686024;28;1396;-67
2022/09/26 00:31:39;;;;;;;7.68;4.07;;;;;;;8.67;100.00;100202.16;684961;28;1548;-67
2022/09/26 00:32:00;;;;;;;6.68;4.20;;;;;;;8.67;100.00;100210.84;683495;28;1380;-66
2022/09/26 00:32:20;;;;;;;7.38;4.50;;;;;;;8.68;100.00;100211.69;685311;28;2006;-67
2022/09/26 00:32:41;;;;;;;7.18;4.13;;;;;;;8.70;100.00;100202.16;686106;28;1235;-67
2022/09/26 00:33:01;;;;;;;7.80;4.50;;;;;;;8.71;100.00;100206.50;684207;28;1215;-67
2022/09/26 00:33:23;;;;;;;8.88;4.25;;;;;;;8.72;100.00;100200.38;684725;28;1252;-67
2022/09/26 00:33:43;;;;;;;7.93;4.30;;;;;;;8.74;100.00;100198.66;685616;28;4723;-67
2022/09/26 00:34:04;;;;;;;7.03;4.25;;;;;;;8.77;100.00;100208.19;684258;28;1081;-67
2022/09/26 00:34:24;;;;;;;7.72;4.07;;;;;;;8.76;100.00;100202.09;685109;28;1378;-68
2022/09/26 00:34:45;;;;;;;7.43;3.83;;;;;;;8.79;100.00;100199.50;684960;28;1331;-68
2022/09/26 00:35:06;;;;;;;6.53;4.05;;;;;;;8.82;100.00;100201.22;686562;28;1184;-68
2022/09/26 00:35:26;;;;;;;6.82;4.00;;;;;;;8.83;100.00;100202.94;684176;28;1280;-68
2022/09/26 00:35:51;;;;;;;6.10;4.07;;;;;;;8.83;100.00;100200.34;684494;28;1238;-67
2022/09/26 00:36:11;;;;;;;6.82;4.40;;;;;;;8.85;100.00;100206.44;682435;28;1311;-66
2022/09/26 00:36:32;;;;;;;6.90;4.10;;;;;;;8.86;100.00;100201.22;678719;29;1252;-66
2022/09/26 00:36:52;;;;;;;7.15;4.07;;;;;;;8.87;100.00;100202.06;680634;29;4519;-66
2022/09/26 00:37:13;;;;;;;7.35;4.03;;;;;;;8.88;100.00;100203.78;681671;28;1228;-67
2022/09/26 00:37:33;;;;;;;6.37;4.07;;;;;;;8.91;100.00;100202.91;681010;28;1863;-66
2022/09/26 00:37:54;;;;;;;6.88;3.90;;;;;;;8.98;100.00;100191.56;684291;28;1284;-67
2022/09/26 00:38:14;;;;;;;8.37;3.90;;;;;;;9.08;100.00;100203.66;685821;28;1006;-67
2022/09/26 00:38:35;;;;;;;6.53;3.73;;;;;;;9.06;100.00;100195.00;687821;28;1160;-66
2022/09/26 00:38:55;;;;;;;9.60;4.00;;;;;;;9.06;100.00;100188.94;687537;28;1314;-66
2022/09/26 00:39:16;;;;;;;9.93;3.85;;;;;;;9.05;100.00;100195.88;685427;28;1304;-66
2022/09/26 00:39:36;;;;;;;7.27;3.90;;;;;;;9.08;100.00;100197.59;687614;28;1216;-67
2022/09/26 00:39:57;;;;;;;7.95;4.18;;;;;;;9.07;100.00;100191.53;687473;28;4468;-68
2022/09/26 00:40:18;;;;;;;8.85;4.20;;;;;;;9.16;100.00;100194.06;685349;28;1184;-66
2022/09/26 00:40:39;;;;;;;8.30;4.03;;;;;;;9.18;100.00;100194.06;682991;28;1507;-67
2022/09/26 00:40:59;;;;;;;7.45;4.10;;;;;;;9.18;100.00;100183.66;681979;28;1343;-67
2022/09/26 00:41:20;;;;;;;6.93;4.00;;;;;;;9.17;100.00;100182.75;684482;28;1279;-67
2022/09/26 00:41:41;;;;;;;7.65;3.90;;;;;;;9.16;100.00;100193.22;683497;28;1443;-68
2022/09/26 00:42:01;;;;;;;7.88;4.15;;;;;;;9.16;100.00;100188.00;683538;28;5354;-67
2022/09/26 00:42:23;;;;;;;7.32;4.10;;;;;;;9.17;100.00;100187.97;682381;28;1256;-67
2022/09/26 00:42:43;;;;;;;7.85;4.00;;;;;;;9.17;100.00;100187.97;684021;28;4829;-67
2022/09/26 00:43:27;;;;;;;7.83;3.90;;;;;;;9.14;100.00;100182.78;685080;28;1178;-67
2022/09/26 00:43:52;;;;;;;5.10;3.58;;;;;;;9.17;100.00;100187.97;688010;28;1166;-68
2022/09/26 00:44:37;;;;;;;7.95;4.03;;;;;;;9.20;100.00;100181.88;685805;28;1312;-68
2022/09/26 00:44:58;;;;;;;7.70;3.95;;;;;;;9.21;100.00;100186.22;686322;28;1449;-67
2022/09/26 00:45:18;;;;;;;6.70;3.93;;;;;;;9.20;100.00;100177.50;684538;28;1247;-68
2022/09/26 00:45:39;;;;;;;6.78;3.70;;;;;;;9.18;100.00;100189.72;684714;28;1187;-67
2022/09/26 00:46:15;;;;;;;6.80;3.80;;;;;;;9.19;100.00;100186.25;686508;28;6770;-66
2022/09/26 00:46:41;;;;;;;8.25;4.15;;;;;;;9.20;100.00;100179.28;689970;28;1406;-67
2022/09/26 00:47:04;;;;;;;8.27;4.03;;;;;;;9.19;100.00;100175.81;690308;28;1195;-67
2022/09/26 00:47:43;;;;;;;10.25;4.03;;;;;;;9.47;100.00;100167.78;689845;28;1168;-67
2022/09/26 00:48:05;;;;;;;7.15;3.85;;;;;;;9.46;100.00;100167.78;689730;28;1445;-69
2022/09/26 00:48:26;;;;;;;8.15;4.03;;;;;;;9.45;100.00;100164.28;689424;28;1380;-66
2022/09/26 00:49:01;;;;;;;7.45;3.90;;;;;;;9.44;100.00;100169.53;691040;28;4277;-67
2022/09/26 00:49:32;;;;;;;6.43;3.75;;;;;;;9.42;100.00;100161.72;687169;28;1404;-68
2022/09/26 00:50:07;;;;;;;8.73;4.10;;;;;;;9.47;100.00;100161.66;688010;28;1493;-67
2022/09/26 00:50:31;;;;;;;8.18;4.00;;;;;;;9.50;100.00;100164.28;685246;28;1208;-68
2022/09/26 00:50:52;;;;;;;6.45;3.72;;;;;;;9.47;100.00;100164.28;684638;28;1382;-67
2022/09/26 00:51:13;;;;;;;8.25;3.80;;;;;;;9.48;100.00;100159.03;683801;28;1489;-65
2022/09/26 00:51:38;;;;;;;8.40;4.00;;;;;;;9.45;100.00;100161.69;684976;28;1304;-67
2022/09/26 00:52:05;;;;;;;8.05;4.00;;;;;;;9.41;100.00;100159.13;685210;28;4375;-66
2022/09/26 00:52:40;;;;;;;6.47;3.70;;;;;;;9.33;100.00;100156.56;685978;28;2103;-66
2022/09/26 00:53:06;;;;;;;6.60;3.83;;;;;;;9.31;100.00;100166.16;685718;28;1521;-67
2022/09/26 00:53:34;;;;;;;7.30;3.67;;;;;;;9.29;100.00;100162.69;684755;28;1153;-67
2022/09/26 00:53:55;;;;;;;7.78;3.92;;;;;;;9.28;100.00;100160.97;686514;28;1319;-67
2022/09/26 00:54:17;;;;;;;5.75;3.60;;;;;;;9.26;100.00;100168.78;688974;28;1373;-68
2022/09/26 00:54:44;;;;;;;5.80;3.67;;;;;;;9.24;100.00;100162.72;688156;28;1529;-67
2022/09/26 00:55:07;;;;;;;5.75;3.42;;;;;;;9.24;100.00;100159.25;685062;28;6324;-67
2022/09/26 00:55:35;;;;;;;6.60;3.67;;;;;;;9.25;100.00;100164.47;684941;28;1227;-67
2022/09/26 00:56:01;;;;;;;6.22;3.70;;;;;;;9.26;100.00;100162.72;686334;28;1371;-67
2022/09/26 00:56:26;;;;;;;7.53;3.75;;;;;;;9.24;100.00;100161.88;685807;28;1229;-66
2022/09/26 00:56:51;;;;;;;7.53;3.60;;;;;;;9.28;100.00;100160.97;687434;28;1156;-67
2022/09/26 00:57:20;;;;;;;7.03;3.60;;;;;;;9.28;100.00;100159.22;687903;28;1260;-66
2022/09/26 00:57:48;;;;;;;8.23;4.15;;;;;;;9.39;100.00;100164.34;687900;28;4772;-67
2022/09/26 00:58:12;;;;;;;8.00;3.72;;;;;;;9.40;100.00;100162.59;690158;28;1260;-68
2022/09/26 00:58:42;;;;;;;7.18;3.60;;;;;;;9.40;100.00;100165.22;691759;28;1276;-65
2022/09/26 00:59:11;;;;;;;8.60;3.95;;;;;;;9.39;100.00;100153.94;690476;28;1311;-68
2022/09/26 00:59:35;;;;;;;8.27;3.80;;;;;;;9.37;100.00;100160.88;687356;28;1390;-67
2022/09/26 01:00:00;;;;;;;6.32;3.70;;;;;;;9.39;100.00;100159.13;684760;28;1236;-67
2022/09/26 01:00:22;;;;;;;5.43;3.53;;;;;;;9.40;100.00;100154.78;686812;28;1203;-66
2022/09/26 01:00:45;;;;;;;5.18;3.40;;;;;;;9.38;100.00;100157.41;683641;28;4618;-67
2022/09/26 01:01:06;;;;;;;6.82;3.70;;;;;;;9.37;100.00;100158.28;684102;28;1354;-67
2022/09/26 01:01:27;;;;;;;7.00;3.90;;;;;;;9.34;100.00;100155.69;684972;28;1411;-67
2022/09/26 01:01:50;;;;;;;6.72;3.80;;;;;;;9.33;100.00;100156.56;686787;28;1382;-67
2022/09/26 01:02:10;;;;;;;7.35;3.70;;;;;;;9.30;100.00;100157.44;687918;28;1343;-66
2022/09/26 01:02:31;;;;;;;7.13;3.87;;;;;;;9.37;100.00;100160.88;687587;28;1571;-67
2022/09/26 01:02:52;;;;;;;7.97;3.90;;;;;;;9.34;100.00;100166.97;686639;28;1295;-68
2022/09/26 01:03:15;;;;;;;7.68;3.88;;;;;;;9.31;100.00;100153.97;688060;28;1176;-66
2022/09/26 01:03:38;;;;;;;6.80;3.92;;;;;;;9.30;100.00;100152.22;686836;28;1316;-68
2022/09/26 01:04:00;;;;;;;6.65;3.70;;;;;;;9.29;100.00;100157.47;688191;28;4661;-67
2022/09/26 01:04:24;;;;;;;6.65;3.58;;;;;;;9.30;100.00;100148.78;689280;28;1212;-66
2022/09/26 01:04:46;;;;;;;6.50;3.72;;;;;;;9.29;100.00;100157.47;688486;28;1171;-68
2022/09/26 01:05:07;;;;;;;6.82;3.60;;;;;;;9.28;100.00;100145.31;688218;28;1319;-67
2022/09/26 01:05:28;;;;;;;6.13;3.80;;;;;;;9.28;100.00;100147.94;687781;28;1238;-67
2022/09/26 01:05:48;;;;;;;7.13;3.80;;;;;;;9.29;100.00;100154.84;688538;28;1299;-68
2022/09/26 01:06:09;;;;;;;7.38;3.90;;;;;;;9.27;100.00;100144.44;686303;28;1196;-67
2022/09/26 01:06:30;;;;;;;7.78;3.67;;;;;;;9.30;100.00;100144.41;689117;28;1322;-67
2022/09/26 01:06:50;;;;;;;8.10;3.40;;;;;;;9.33;100.00;100146.13;689317;28;4410;-66
2022/09/26 01:07:17;;;;;;;9.88;3.60;;;;;;;9.36;100.00;100146.97;690928;28;1105;-67
2022/09/26 01:07:37;;;;;;;6.60;3.65;;;;;;;9.38;100.00;100149.56;685558;28;1231;-67
2022/09/26 01:08:00;;;;;;;6.82;3.60;;;;;;;9.37;100.00;100143.50;684267;28;1257;-66
2022/09/26 01:08:30;;;;;;;6.95;3.70;;;;;;;9.36;100.00;100146.97;682124;28;1605;-67
2022/09/26 01:09:07;;;;;;;6.63;3.70;;;;;;;9.35;100.00;100145.25;682782;28;1368;-67
2022/09/26 01:09:29;;;;;;;7.35;3.70;;;;;;;9.39;100.00;100143.50;685743;28;1192;-67
2022/09/26 01:09:51;;;;;;;6.38;3.60;;;;;;;9.42;100.00;100148.66;685800;28;4359;-66
2022/09/26 01:10:12;;;;;;;6.90;3.72;;;;;;;9.45;100.00;100150.41;688035;28;1362;-66
2022/09/26 01:10:35;;;;;;;7.20;3.75;;;;;;;9.49;100.00;100141.66;688220;28;1524;-67
2022/09/26 01:10:56;;;;;;;6.55;3.63;;;;;;;9.51;100.00;100151.22;683932;28;1295;-67
2022/09/26 01:11:17;;;;;;;5.00;3.20;;;;;;;9.53;100.00;100146.84;683392;28;1232;-68
2022/09/26 01:11:40;;;;;;;6.10;3.28;;;;;;;9.53;100.00;100139.00;683720;28;1244;-67
2022/09/26 01:12:02;;;;;;;6.47;3.50;;;;;;;9.53;100.00;100149.44;680283;28;2095;-67
2022/09/26 01:12:22;;;;;;;7.05;3.90;;;;;;;9.51;100.00;100151.22;682139;28;1977;-67
2022/09/26 01:12:43;;;;;;;6.70;3.72;;;;;;;9.49;100.00;100147.72;681460;28;4957;-68
2022/09/26 01:13:04;;;;;;;7.17;3.70;;;;;;;9.46;100.00;100149.53;686515;28;1148;-67
2022/09/26 01:13:25;;;;;;;7.70;3.75;;;;;;;9.43;100.00;100145.19;685062;28;1235;-67
2022/09/26 01:13:46;;;;;;;6.03;3.72;;;;;;;9.42;100.00;100140.00;684172;28;1211;-66
2022/09/26 01:14:09;;;;;;;6.25;3.63;;;;;;;9.39;100.00;100143.50;680077;28;1295;-67
2022/09/26 01:14:32;;;;;;;6.22;3.80;;;;;;;9.38;100.00;100139.13;679765;29;1364;-67
2022/09/26 01:14:53;;;;;;;6.20;3.55;;;;;;;9.41;100.00;100149.53;682280;28;1351;-68
2022/09/26 01:15:15;;;;;;;5.70;3.40;;;;;;;9.43;100.00;100139.97;683155;28;1252;-68
2022/09/26 01:15:36;;;;;;;6.73;3.53;;;;;;;9.42;100.00;100142.59;685031;28;3581;-68
2022/09/26 01:15:56;;;;;;;8.00;3.63;;;;;;;9.46;100.00;100137.34;686405;28;4634;-68
2022/09/26 01:16:17;;;;;;;8.50;3.80;;;;;;;9.52;100.00;100139.03;689976;28;1180;-68
2022/09/26 01:16:46;;;;;;;6.78;4.00;;;;;;;9.70;100.00;100140.59;688233;28;1238;-68
2022/09/26 01:17:07;;;;;;;8.07;3.75;;;;;;;9.65;100.00;100135.44;687513;28;1211;-67
2022/09/26 01:17:29;;;;;;;7.50;3.50;;;;;;;9.60;100.00;100133.75;685653;28;1177;-67
2022/09/26 01:17:50;;;;;;;5.38;3.55;;;;;;;9.58;100.00;100135.50;687755;28;1371;-67
2022/09/26 01:18:11;;;;;;;5.50;3.45;;;;;;;9.54;100.00;100145.09;687251;28;1330;-70
2022/09/26 01:18:31;;;;;;;7.60;3.80;;;;;;;9.51;100.00;100135.56;687187;28;1261;-66
2022/09/26 01:18:51;;;;;;;7.43;3.78;;;;;;;9.46;100.00;100137.34;687968;28;4558;-66
2022/09/26 01:19:21;;;;;;;7.83;3.70;;;;;;;9.43;100.00;100139.09;686774;28;1251;-67
2022/09/26 01:19:53;;;;;;;7.63;3.53;;;;;;;9.44;100.00;100135.63;687002;28;1294;-65
2022/09/26 01:20:42;;;;;;;5.78;3.50;;;;;;;9.42;100.00;100134.78;687072;28;1378;-67
2022/09/26 01:21:05;;;;;;;5.78;3.75;;;;;;;9.39;100.00;100138.28;687865;28;1176;-67
2022/09/26 01:21:44;;;;;;;6.63;3.50;;;;;;;9.38;100.00;100139.13;685036;28;1295;-67
2022/09/26 01:22:16;;;;;;;7.03;3.40;;;;;;;9.46;100.00;100136.47;685777;28;4973;-66
2022/09/26 01:23:02;;;;;;;6.38;3.80;;;;;;;9.49;100.00;100136.44;688246;28;1337;-67
2022/09/26 01:23:41;;;;;;;6.25;3.70;;;;;;;9.45;100.00;100140.81;684102;28;1171;-67
2022/09/26 01:24:39;;;;;;;7.07;3.65;;;;;;;9.45;100.00;100135.59;685057;28;1415;-67
2022/09/26 01:25:27;;;;;;;6.72;3.60;;;;;;;9.57;100.00;100126.81;687096;28;4688;-66
2022/09/26 01:26:06;;;;;;;8.00;3.88;;;;;;;9.54;100.00;100135.53;687341;28;1334;-66
2022/09/26 01:26:59;;;;;;;7.40;3.83;;;;;;;9.49;100.00;100126.84;685190;28;1397;-67
2022/09/26 01:27:41;;;;;;;6.53;3.70;;;;;;;9.49;100.00;100129.47;684269;28;1396;-66
2022/09/26 01:28:32;;;;;;;8.43;3.67;;;;;;;9.52;100.00;100134.66;685304;28;4944;-65
2022/09/26 01:29:14;;;;;;;7.03;3.70;;;;;;;9.53;100.00;100132.94;685726;28;1394;-66
2022/09/26 01:29:53;;;;;;;6.60;3.45;;;;;;;9.54;100.00;100126.84;686888;28;1531;-67
2022/09/26 01:30:27;;;;;;;7.10;3.63;;;;;;;9.58;100.00;100130.25;684545;28;1421;-68
2022/09/26 01:31:00;;;;;;;7.07;3.78;;;;;;;9.54;100.00;100125.09;684541;28;4344;-68
2022/09/26 01:32:47;;;;;;;7.70;3.78;;;;;;;9.57;100.00;100120.69;685576;28;1306;-67
2022/09/26 01:32:56;;;;;;;9.00;4.03;;;;;;;9.51;100.00;100129.44;687195;28;2186;-67
2022/09/26 01:33:23;;;;;;;6.13;3.63;;;;;;;9.52;100.00;100119.00;688526;28;1342;-68
2022/09/26 01:33:48;;;;;;;6.63;4.05;;;;;;;9.49;100.00;100123.41;687754;28;4323;-68
2022/09/26 01:34:36;;;;;;;7.90;3.90;;;;;;;9.43;100.00;100126.94;685353;28;1266;-67
2022/09/26 01:35:08;;;;;;;7.38;3.80;;;;;;;9.41;100.00;100128.66;681413;28;1552;-67
2022/09/26 01:35:50;;;;;;;6.57;3.80;;;;;;;9.44;100.00;100123.44;685754;28;1203;-67
2022/09/26 01:36:36;;;;;;;7.32;4.05;;;;;;;9.42;100.00;100122.59;683836;28;1507;-68
2022/09/26 01:37:13;;;;;;;7.22;3.53;;;;;;;9.47;100.00;100123.41;686888;28;4445;-67
2022/09/26 01:38:05;;;;;;;7.60;3.70;;;;;;;9.45;100.00;100119.94;685338;28;1275;-67
2022/09/26 01:38:37;;;;;;;7.32;3.78;;;;;;;9.46;100.00;100121.69;688675;28;1535;-69
2022/09/26 01:39:19;;;;;;;8.07;3.80;;;;;;;9.48;100.00;100119.06;691435;28;1516;-67
2022/09/26 01:40:18;;;;;;;8.07;3.80;;;;;;;9.47;100.00;100120.81;687453;28;1406;-66
2022/09/26 01:41:31;;;;;;;6.45;4.15;;;;;;;9.45;100.00;100121.69;677287;29;4923;-67
2022/09/26 01:41:52;;;;;;;7.28;3.88;;;;;;;9.45;100.00;100122.56;682990;28;1412;-68
2022/09/26 01:42:54;;;;;;;7.07;3.80;;;;;;;9.46;100.00;100116.47;679560;28;1370;-67
2022/09/26 01:43:24;;;;;;;8.98;3.88;;;;;;;9.52;100.00;100121.59;687453;28;1343;-67
2022/09/26 01:44:03;;;;;;;7.57;3.60;;;;;;;9.53;100.00;100117.28;685356;28;1439;-67
2022/09/26 01:44:24;;;;;;;7.55;3.90;;;;;;;9.52;100.00;100119.00;687690;28;1303;-67
2022/09/26 01:44:53;;;;;;;7.40;4.20;;;;;;;9.69;100.00;100117.97;686626;28;1422;-66
2022/09/26 01:45:18;;;;;;;7.13;4.07;;;;;;;9.82;100.00;100116.97;685493;28;1389;-66
2022/09/26 01:45:50;;;;;;;7.10;4.00;;;;;;;9.85;100.00;100119.56;684455;28;4436;-67
2022/09/26 01:46:22;;;;;;;6.82;3.70;;;;;;;9.79;100.00;100119.63;684929;28;1440;-66
2022/09/26 01:47:07;;;;;;;8.90;4.10;;;;;;;9.75;100.00;100111.81;688783;28;1252;-68
2022/09/26 01:47:44;;;;;;;8.23;4.05;;;;;;;9.71;100.00;100116.22;686004;28;1327;-66
2022/09/26 01:48:17;;;;;;;6.35;3.75;;;;;;;9.65;100.00;100118.88;685832;28;1299;-67
2022/09/26 01:48:44;;;;;;;8.23;3.63;;;;;;;9.61;100.00;100111.97;685078;28;1529;-66
2022/09/26 01:49:13;;;;;;;6.78;4.05;;;;;;;9.57;100.00;100118.97;686265;28;4630;-67
2022/09/26 01:49:39;;;;;;;7.35;3.88;;;;;;;9.56;100.00;100111.16;688389;28;1532;-67
2022/09/26 01:49:59;;;;;;;6.78;4.00;;;;;;;9.57;100.00;100108.53;686417;28;1225;-66
2022/09/26 01:50:24;;;;;;;6.53;3.85;;;;;;;9.73;100.00;100104.00;688682;28;1199;-68
2022/09/26 01:50:52;;;;;;;7.43;4.10;;;;;;;9.86;100.00;100104.78;686049;28;1337;-68
2022/09/26 01:51:35;;;;;;;7.28;4.30;;;;;;;9.77;100.00;100104.84;681990;28;1963;-68
2022/09/26 01:52:26;;;;;;;8.02;4.22;;;;;;;9.70;100.00;100109.28;685753;28;4350;-68
2022/09/26 01:52:59;;;;;;;7.20;3.75;;;;;;;9.68;100.00;100103.22;685087;28;1281;-67
2022/09/26 01:53:32;;;;;;;7.32;4.32;;;;;;;9.64;100.00;100104.13;683383;28;1398;-67
2022/09/26 01:53:58;;;;;;;7.78;3.88;;;;;;;9.62;100.00;100108.47;686290;28;1508;-67
2022/09/26 01:54:25;;;;;;;6.40;4.00;;;;;;;9.56;100.00;100111.16;682610;28;1288;-67
2022/09/26 01:54:56;;;;;;;7.43;4.30;;;;;;;9.51;100.00;100101.63;682609;28;4401;-68
2022/09/26 01:55:23;;;;;;;7.70;4.13;;;;;;;9.51;100.00;100106.84;684149;28;1505;-68
2022/09/26 01:55:50;;;;;;;7.05;3.90;;;;;;;9.50;100.00;100102.50;687231;28;1314;-68
2022/09/26 01:56:25;;;;;;;8.00;4.40;;;;;;;9.46;100.00;100103.41;682978;28;1272;-67
2022/09/26 01:56:49;;;;;;;6.22;3.97;;;;;;;9.45;100.00;100106.91;682555;28;1322;-66
2022/09/26 01:57:16;;;;;;;8.10;4.45;;;;;;;9.45;100.00;100109.50;680056;29;1292;-68
2022/09/26 01:58:02;;;;;;;6.30;3.92;;;;;;;9.46;100.00;100106.03;680056;28;1300;-68
2022/09/26 01:58:27;;;;;;;7.68;4.30;;;;;;;9.45;100.00;100100.81;680353;28;5771;-68
2022/09/26 01:59:00;;;;;;;7.57;4.13;;;;;;;9.47;100.00;100106.88;680292;29;1356;-68
2022/09/26 01:59:29;;;;;;;6.35;3.80;;;;;;;9.49;100.00;100105.13;678539;29;1407;-68
2022/09/26 01:59:59;;;;;;;6.95;3.97;;;;;;;9.51;100.00;100109.47;679850;28;1442;-67
2022/09/26 02:00:20;;;;;;;7.40;4.10;;;;;;;9.52;100.00;100100.72;678792;29;1256;-68
2022/09/26 02:00:45;;;;;;;7.75;3.85;;;;;;;9.51;100.00;100099.03;682041;28;4424;-66
2022/09/26 02:01:10;;;;;;;8.32;4.22;;;;;;;9.48;100.00;100096.41;683601;28;1208;-67
2022/09/26 02:01:36;;;;;;;7.93;3.95;;;;;;;9.44;100.00;100097.38;684917;28;1149;-67
2022/09/26 02:02:01;;;;;;;10.25;4.50;;;;;;;9.41;100.00;100094.75;684480;28;1517;-68
2022/09/26 02:02:31;;;;;;;6.68;4.07;;;;;;;9.44;100.00;100096.47;687047;28;1343;-67
2022/09/26 02:02:55;;;;;;;7.13;3.80;;;;;;;9.45;100.00;100093.00;688788;28;1346;-67
2022/09/26 02:03:28;;;;;;;6.70;4.07;;;;;;;9.48;100.00;100093.81;688031;28;1098;-67
2022/09/26 02:03:54;;;;;;;7.53;3.72;;;;;;;9.51;100.00;100090.31;684621;28;4367;-68